sensor_id;sensor_type;location;lat;lon;timestamp;pressure;altitude;pressure_sealevel;temperature;humidity
51147;BME280;37207;53.060;18.726;2022-08-05T00:00:23;100721.96;;;22.28;53.67
51147;BME280;37207;53.060;18.726;2022-08-05T00:03:04;100718.33;;;22.21;53.89
51147;BME280;37207;53.060;18.726;2022-08-05T00:05:31;100719.49;;;22.17;54.29
51147;BME280;37207;53.060;18.726;2022-08-05T00:07:58;100716.67;;;22.13;54.33
51147;BME280;37207;53.060;18.726;2022-08-05T00:10:28;100717.63;;;22.07;54.65
51147;BME280;37207;53.060;18.726;2022-08-05T00:12:56;100714.89;;;22.00;54.87
51147;BME280;37207;53.060;18.726;2022-08-05T00:15:23;100713.75;;;21.92;55.13
51147;BME280;37207;53.060;18.726;2022-08-05T00:17:50;100714.58;;;21.84;55.44
51147;BME280;37207;53.060;18.726;2022-08-05T00:20:17;100715.59;;;21.77;55.47
51147;BME280;37207;53.060;18.726;2022-08-05T00:22:44;100717.79;;;21.70;55.73
51147;BME280;37207;53.060;18.726;2022-08-05T00:25:11;100715.13;;;21.65;55.96
51147;BME280;37207;53.060;18.726;2022-08-05T00:27:41;100714.95;;;21.59;56.03
51147;BME280;37207;53.060;18.726;2022-08-05T00:30:09;100712.15;;;21.54;56.23
51147;BME280;37207;53.060;18.726;2022-08-05T00:32:36;100713.19;;;21.48;56.26
51147;BME280;37207;53.060;18.726;2022-08-05T00:35:03;100716.83;;;21.43;56.59
51147;BME280;37207;53.060;18.726;2022-08-05T00:37:31;100713.02;;;21.36;56.92
51147;BME280;37207;53.060;18.726;2022-08-05T00:39:58;100722.30;;;21.27;57.15
51147;BME280;37207;53.060;18.726;2022-08-05T00:42:33;100718.80;;;21.19;57.39
51147;BME280;37207;53.060;18.726;2022-08-05T00:45:02;100718.52;;;21.11;57.64
51147;BME280;37207;53.060;18.726;2022-08-05T00:47:29;100719.58;;;21.05;57.80
51147;BME280;37207;53.060;18.726;2022-08-05T00:49:57;100716.84;;;20.97;57.97
51147;BME280;37207;53.060;18.726;2022-08-05T00:52:24;100713.09;;;20.90;58.18
51147;BME280;37207;53.060;18.726;2022-08-05T00:54:51;100713.16;;;20.83;58.32
51147;BME280;37207;53.060;18.726;2022-08-05T00:57:18;100717.60;;;20.77;58.58
51147;BME280;37207;53.060;18.726;2022-08-05T00:59:47;100715.47;;;20.71;58.77
51147;BME280;37207;53.060;18.726;2022-08-05T01:02:14;100714.65;;;20.66;58.98
51147;BME280;37207;53.060;18.726;2022-08-05T01:04:41;100714.10;;;20.60;59.04
51147;BME280;37207;53.060;18.726;2022-08-05T01:07:09;100715.05;;;20.55;59.21
51147;BME280;37207;53.060;18.726;2022-08-05T01:09:37;100710.45;;;20.50;59.29
51147;BME280;37207;53.060;18.726;2022-08-05T01:12:11;100712.70;;;20.45;59.48
51147;BME280;37207;53.060;18.726;2022-08-05T01:14:51;100714.36;;;20.41;59.68
51147;BME280;37207;53.060;18.726;2022-08-05T01:17:48;100715.92;;;20.36;59.95
51147;BME280;37207;53.060;18.726;2022-08-05T01:21:00;100712.27;;;20.29;60.07
51147;BME280;37207;53.060;18.726;2022-08-05T01:26:43;100705.22;;;20.14;60.66
51147;BME280;37207;53.060;18.726;2022-08-05T01:29:20;100704.39;;;20.09;60.97
51147;BME280;37207;53.060;18.726;2022-08-05T01:31:53;100698.83;;;20.03;60.98
51147;BME280;37207;53.060;18.726;2022-08-05T01:34:34;100698.48;;;19.98;61.17
51147;BME280;37207;53.060;18.726;2022-08-05T01:37:18;100690.20;;;19.96;61.25
51147;BME280;37207;53.060;18.726;2022-08-05T01:39:48;100694.73;;;19.93;61.42
51147;BME280;37207;53.060;18.726;2022-08-05T01:42:19;100689.55;;;19.90;61.49
51147;BME280;37207;53.060;18.726;2022-08-05T01:44:49;100687.87;;;19.88;61.54
51147;BME280;37207;53.060;18.726;2022-08-05T01:47:18;100686.60;;;19.83;61.73
51147;BME280;37207;53.060;18.726;2022-08-05T01:49:49;100683.77;;;19.80;61.95
51147;BME280;37207;53.060;18.726;2022-08-05T01:52:20;100683.59;;;19.77;62.05
51147;BME280;37207;53.060;18.726;2022-08-05T01:54:55;100682.52;;;19.74;62.00
51147;BME280;37207;53.060;18.726;2022-08-05T01:57:35;100684.05;;;19.75;62.25
51147;BME280;37207;53.060;18.726;2022-08-05T02:00:05;100681.84;;;19.72;62.37
51147;BME280;37207;53.060;18.726;2022-08-05T02:02:36;100680.98;;;19.69;62.51
51147;BME280;37207;53.060;18.726;2022-08-05T02:05:07;100678.55;;;19.64;62.57
51147;BME280;37207;53.060;18.726;2022-08-05T02:07:37;100679.92;;;19.60;62.78
51147;BME280;37207;53.060;18.726;2022-08-05T02:10:05;100682.15;;;19.57;62.84
51147;BME280;37207;53.060;18.726;2022-08-05T02:12:51;100677.69;;;19.55;62.89
51147;BME280;37207;53.060;18.726;2022-08-05T02:15:25;100680.72;;;19.51;62.97
51147;BME280;37207;53.060;18.726;2022-08-05T02:20:34;100675.81;;;19.46;63.17
51147;BME280;37207;53.060;18.726;2022-08-05T02:23:08;100674.69;;;19.42;63.22
51147;BME280;37207;53.060;18.726;2022-08-05T02:25:40;100672.66;;;19.38;63.48
51147;BME280;37207;53.060;18.726;2022-08-05T02:28:09;100665.37;;;19.34;63.64
51147;BME280;37207;53.060;18.726;2022-08-05T02:30:45;100659.05;;;19.30;63.76
51147;BME280;37207;53.060;18.726;2022-08-05T02:33:16;100660.23;;;19.27;63.87
51147;BME280;37207;53.060;18.726;2022-08-05T02:35:45;100656.15;;;19.25;63.98
51147;BME280;37207;53.060;18.726;2022-08-05T02:38:12;100653.37;;;19.22;64.16
51147;BME280;37207;53.060;18.726;2022-08-05T02:40:42;100652.36;;;19.20;64.09
51147;BME280;37207;53.060;18.726;2022-08-05T02:43:11;100655.86;;;19.16;64.13
51147;BME280;37207;53.060;18.726;2022-08-05T02:45:41;100650.77;;;19.13;64.27
51147;BME280;37207;53.060;18.726;2022-08-05T02:48:09;100648.98;;;19.11;64.22
51147;BME280;37207;53.060;18.726;2022-08-05T02:50:37;100648.52;;;19.09;64.38
51147;BME280;37207;53.060;18.726;2022-08-05T02:53:04;100638.98;;;19.06;64.45
51147;BME280;37207;53.060;18.726;2022-08-05T02:55:33;100641.88;;;19.04;64.47
51147;BME280;37207;53.060;18.726;2022-08-05T02:58:01;100642.61;;;19.02;64.61
51147;BME280;37207;53.060;18.726;2022-08-05T03:00:29;100644.33;;;19.00;64.73
51147;BME280;37207;53.060;18.726;2022-08-05T03:02:56;100645.42;;;18.98;64.59
51147;BME280;37207;53.060;18.726;2022-08-05T03:05:24;100646.92;;;18.95;64.77
51147;BME280;37207;53.060;18.726;2022-08-05T03:07:52;100645.14;;;18.93;64.74
51147;BME280;37207;53.060;18.726;2022-08-05T03:10:20;100646.21;;;18.90;64.95
51147;BME280;37207;53.060;18.726;2022-08-05T03:12:48;100649.11;;;18.88;65.13
51147;BME280;37207;53.060;18.726;2022-08-05T03:15:19;100646.09;;;18.85;65.26
51147;BME280;37207;53.060;18.726;2022-08-05T03:17:48;100643.95;;;18.82;65.32
51147;BME280;37207;53.060;18.726;2022-08-05T03:20:15;100641.31;;;18.80;65.47
51147;BME280;37207;53.060;18.726;2022-08-05T03:22:42;100638.92;;;18.77;65.59
51147;BME280;37207;53.060;18.726;2022-08-05T03:25:10;100639.95;;;18.76;65.64
51147;BME280;37207;53.060;18.726;2022-08-05T03:27:37;100642.68;;;18.76;65.63
51147;BME280;37207;53.060;18.726;2022-08-05T03:30:05;100642.73;;;18.77;65.64
51147;BME280;37207;53.060;18.726;2022-08-05T03:32:32;100643.45;;;18.79;65.66
51147;BME280;37207;53.060;18.726;2022-08-05T03:35:00;100639.12;;;18.77;65.65
51147;BME280;37207;53.060;18.726;2022-08-05T03:37:29;100644.77;;;18.76;65.73
51147;BME280;37207;53.060;18.726;2022-08-05T03:39:58;100640.70;;;18.77;65.87
51147;BME280;37207;53.060;18.726;2022-08-05T03:42:26;100643.88;;;18.76;65.87
51147;BME280;37207;53.060;18.726;2022-08-05T03:44:53;100646.95;;;18.77;65.84
51147;BME280;37207;53.060;18.726;2022-08-05T03:47:21;100647.80;;;18.78;65.98
51147;BME280;37207;53.060;18.726;2022-08-05T03:49:48;100649.21;;;18.79;66.04
51147;BME280;37207;53.060;18.726;2022-08-05T03:52:27;100645.45;;;18.79;66.05
51147;BME280;37207;53.060;18.726;2022-08-05T03:55:09;100646.76;;;18.80;66.15
51147;BME280;37207;53.060;18.726;2022-08-05T03:57:39;100642.21;;;18.80;66.23
51147;BME280;37207;53.060;18.726;2022-08-05T04:00:13;100641.92;;;18.82;66.26
51147;BME280;37207;53.060;18.726;2022-08-05T04:02:47;100642.96;;;18.84;66.32
51147;BME280;37207;53.060;18.726;2022-08-05T04:05:15;100645.46;;;18.86;66.30
51147;BME280;37207;53.060;18.726;2022-08-05T04:07:43;100646.62;;;18.88;66.38
51147;BME280;37207;53.060;18.726;2022-08-05T04:10:11;100649.81;;;18.90;66.38
51147;BME280;37207;53.060;18.726;2022-08-05T04:12:40;100646.54;;;18.94;66.44
51147;BME280;37207;53.060;18.726;2022-08-05T04:15:09;100646.47;;;18.97;66.41
51147;BME280;37207;53.060;18.726;2022-08-05T04:17:37;100645.81;;;19.02;66.44
51147;BME280;37207;53.060;18.726;2022-08-05T04:20:05;100648.96;;;19.05;66.45
51147;BME280;37207;53.060;18.726;2022-08-05T04:22:32;100649.63;;;19.10;66.53
51147;BME280;37207;53.060;18.726;2022-08-05T04:24:59;100647.48;;;19.15;66.59
51147;BME280;37207;53.060;18.726;2022-08-05T04:27:26;100647.54;;;19.22;66.57
51147;BME280;37207;53.060;18.726;2022-08-05T04:29:54;100642.39;;;19.26;66.47
51147;BME280;37207;53.060;18.726;2022-08-05T04:32:21;100642.93;;;19.31;66.55
51147;BME280;37207;53.060;18.726;2022-08-05T04:34:48;100640.15;;;19.37;66.73
51147;BME280;37207;53.060;18.726;2022-08-05T04:37:15;100643.98;;;19.42;66.75
51147;BME280;37207;53.060;18.726;2022-08-05T04:39:42;100641.20;;;19.47;66.73
51147;BME280;37207;53.060;18.726;2022-08-05T04:42:09;100636.55;;;19.54;66.60
51147;BME280;37207;53.060;18.726;2022-08-05T04:44:36;100638.97;;;19.62;66.77
51147;BME280;37207;53.060;18.726;2022-08-05T04:47:04;100641.95;;;19.68;66.58
51147;BME280;37207;53.060;18.726;2022-08-05T04:49:31;100640.11;;;19.75;66.44
51147;BME280;37207;53.060;18.726;2022-08-05T04:51:58;100639.00;;;19.81;66.30
51147;BME280;37207;53.060;18.726;2022-08-05T04:54:25;100634.77;;;19.91;66.28
51147;BME280;37207;53.060;18.726;2022-08-05T04:56:53;100634.38;;;19.98;66.03
51147;BME280;37207;53.060;18.726;2022-08-05T04:59:20;100633.16;;;20.05;65.95
51147;BME280;37207;53.060;18.726;2022-08-05T05:01:48;100633.83;;;20.12;65.83
51147;BME280;37207;53.060;18.726;2022-08-05T05:04:15;100632.92;;;20.18;65.61
51147;BME280;37207;53.060;18.726;2022-08-05T05:06:43;100631.77;;;20.23;65.53
51147;BME280;37207;53.060;18.726;2022-08-05T05:09:11;100630.39;;;20.29;65.24
51147;BME280;37207;53.060;18.726;2022-08-05T05:11:38;100639.66;;;20.36;65.04
51147;BME280;37207;53.060;18.726;2022-08-05T05:14:05;100635.89;;;20.42;64.90
51147;BME280;37207;53.060;18.726;2022-08-05T05:16:33;100638.38;;;20.49;64.74
51147;BME280;37207;53.060;18.726;2022-08-05T05:19:00;100639.25;;;20.56;64.67
51147;BME280;37207;53.060;18.726;2022-08-05T05:21:27;100644.73;;;20.64;64.72
51147;BME280;37207;53.060;18.726;2022-08-05T05:23:54;100642.92;;;20.70;64.54
51147;BME280;37207;53.060;18.726;2022-08-05T05:26:21;100642.48;;;20.78;64.58
51147;BME280;37207;53.060;18.726;2022-08-05T05:28:48;100641.71;;;20.87;64.67
51147;BME280;37207;53.060;18.726;2022-08-05T05:31:16;100642.67;;;20.95;64.49
51147;BME280;37207;53.060;18.726;2022-08-05T05:33:43;100646.81;;;21.03;64.25
51147;BME280;37207;53.060;18.726;2022-08-05T05:36:10;100640.84;;;21.10;64.46
51147;BME280;37207;53.060;18.726;2022-08-05T05:38:37;100641.88;;;21.19;64.27
51147;BME280;37207;53.060;18.726;2022-08-05T05:41:04;100640.38;;;21.27;64.03
51147;BME280;37207;53.060;18.726;2022-08-05T05:43:31;100638.87;;;21.35;64.16
51147;BME280;37207;53.060;18.726;2022-08-05T05:45:59;100637.06;;;21.44;64.02
51147;BME280;37207;53.060;18.726;2022-08-05T05:48:26;100636.34;;;21.51;64.11
51147;BME280;37207;53.060;18.726;2022-08-05T05:50:54;100635.70;;;21.60;63.79
51147;BME280;37207;53.060;18.726;2022-08-05T05:53:21;100638.02;;;21.68;63.72
51147;BME280;37207;53.060;18.726;2022-08-05T05:55:48;100635.22;;;21.77;63.72
51147;BME280;37207;53.060;18.726;2022-08-05T05:58:16;100631.48;;;21.87;63.72
51147;BME280;37207;53.060;18.726;2022-08-05T06:00:43;100636.92;;;21.98;63.41
51147;BME280;37207;53.060;18.726;2022-08-05T06:03:10;100634.64;;;22.06;63.31
51147;BME280;37207;53.060;18.726;2022-08-05T06:05:40;100638.59;;;22.16;63.32
51147;BME280;37207;53.060;18.726;2022-08-05T06:08:07;100631.55;;;22.25;62.99
51147;BME280;37207;53.060;18.726;2022-08-05T06:10:36;100632.13;;;22.35;62.85
51147;BME280;37207;53.060;18.726;2022-08-05T06:13:03;100633.08;;;22.42;62.92
51147;BME280;37207;53.060;18.726;2022-08-05T06:15:31;100633.86;;;22.52;62.52
51147;BME280;37207;53.060;18.726;2022-08-05T06:17:58;100637.95;;;22.62;62.17
51147;BME280;37207;53.060;18.726;2022-08-05T06:20:25;100641.77;;;22.75;61.66
51147;BME280;37207;53.060;18.726;2022-08-05T06:22:52;100639.95;;;22.88;61.07
51147;BME280;37207;53.060;18.726;2022-08-05T06:25:20;100636.10;;;23.00;60.87
51147;BME280;37207;53.060;18.726;2022-08-05T06:27:47;100638.23;;;23.12;60.34
51147;BME280;37207;53.060;18.726;2022-08-05T06:30:14;100638.88;;;23.24;59.80
51147;BME280;37207;53.060;18.726;2022-08-05T06:32:44;100635.42;;;23.35;59.61
51147;BME280;37207;53.060;18.726;2022-08-05T06:35:11;100635.38;;;23.44;59.37
51147;BME280;37207;53.060;18.726;2022-08-05T06:37:38;100632.92;;;23.55;59.09
51147;BME280;37207;53.060;18.726;2022-08-05T06:40:06;100634.48;;;23.65;58.93
51147;BME280;37207;53.060;18.726;2022-08-05T06:42:33;100631.92;;;23.75;58.62
51147;BME280;37207;53.060;18.726;2022-08-05T06:45:00;100637.08;;;23.86;58.24
51147;BME280;37207;53.060;18.726;2022-08-05T06:47:27;100631.20;;;23.99;58.32
51147;BME280;37207;53.060;18.726;2022-08-05T06:49:54;100626.03;;;24.11;57.93
51147;BME280;37207;53.060;18.726;2022-08-05T06:52:22;100621.80;;;24.25;57.81
51147;BME280;37207;53.060;18.726;2022-08-05T06:54:49;100628.25;;;24.38;57.42
51147;BME280;37207;53.060;18.726;2022-08-05T06:57:16;100622.03;;;24.50;57.35
51147;BME280;37207;53.060;18.726;2022-08-05T06:59:44;100618.34;;;24.66;57.27
51147;BME280;37207;53.060;18.726;2022-08-05T07:02:11;100617.17;;;24.80;57.03
51147;BME280;37207;53.060;18.726;2022-08-05T07:04:41;100617.50;;;24.98;56.93
51147;BME280;37207;53.060;18.726;2022-08-05T07:07:08;100616.95;;;25.13;56.31
51147;BME280;37207;53.060;18.726;2022-08-05T07:09:36;100616.34;;;25.28;56.25
51147;BME280;37207;53.060;18.726;2022-08-05T07:12:03;100612.83;;;25.44;55.91
51147;BME280;37207;53.060;18.726;2022-08-05T07:14:31;100616.71;;;25.66;55.55
51147;BME280;37207;53.060;18.726;2022-08-05T07:17:16;100616.37;;;25.86;54.78
51147;BME280;37207;53.060;18.726;2022-08-05T07:19:44;100613.42;;;26.03;54.22
51147;BME280;37207;53.060;18.726;2022-08-05T07:22:11;100610.80;;;26.24;53.92
51147;BME280;37207;53.060;18.726;2022-08-05T07:24:39;100613.88;;;26.43;53.79
51147;BME280;37207;53.060;18.726;2022-08-05T07:27:06;100609.98;;;26.61;52.54
51147;BME280;37207;53.060;18.726;2022-08-05T07:29:33;100607.59;;;26.77;52.02
51147;BME280;37207;53.060;18.726;2022-08-05T07:32:01;100603.17;;;26.93;51.63
51147;BME280;37207;53.060;18.726;2022-08-05T07:34:28;100601.88;;;27.08;51.23
51147;BME280;37207;53.060;18.726;2022-08-05T07:36:55;100601.81;;;27.23;50.95
51147;BME280;37207;53.060;18.726;2022-08-05T07:39:22;100598.06;;;27.39;50.84
51147;BME280;37207;53.060;18.726;2022-08-05T07:41:49;100601.52;;;27.59;50.49
51147;BME280;37207;53.060;18.726;2022-08-05T07:44:16;100603.17;;;27.79;49.59
51147;BME280;37207;53.060;18.726;2022-08-05T07:46:43;100601.33;;;27.94;49.39
51147;BME280;37207;53.060;18.726;2022-08-05T07:49:13;100601.33;;;28.11;48.64
51147;BME280;37207;53.060;18.726;2022-08-05T07:51:40;100602.47;;;28.26;48.25
51147;BME280;37207;53.060;18.726;2022-08-05T07:54:07;100603.48;;;28.39;47.88
51147;BME280;37207;53.060;18.726;2022-08-05T07:56:35;100597.45;;;28.56;47.42
51147;BME280;37207;53.060;18.726;2022-08-05T07:59:02;100597.73;;;28.69;47.12
51147;BME280;37207;53.060;18.726;2022-08-05T08:01:29;100601.86;;;28.85;46.41
51147;BME280;37207;53.060;18.726;2022-08-05T08:03:59;100595.59;;;28.98;46.02
51147;BME280;37207;53.060;18.726;2022-08-05T08:06:26;100592.88;;;29.12;46.22
51147;BME280;37207;53.060;18.726;2022-08-05T08:08:54;100591.57;;;29.25;45.54
51147;BME280;37207;53.060;18.726;2022-08-05T08:11:21;100597.23;;;29.34;44.74
51147;BME280;37207;53.060;18.726;2022-08-05T08:13:51;100594.85;;;29.49;45.59
51147;BME280;37207;53.060;18.726;2022-08-05T08:16:20;100591.58;;;29.68;44.96
51147;BME280;37207;53.060;18.726;2022-08-05T08:18:47;100591.48;;;29.81;44.23
51147;BME280;37207;53.060;18.726;2022-08-05T08:21:14;100588.61;;;29.95;43.56
51147;BME280;37207;53.060;18.726;2022-08-05T08:23:42;100588.54;;;30.08;43.62
51147;BME280;37207;53.060;18.726;2022-08-05T08:26:09;100589.58;;;30.22;43.46
51147;BME280;37207;53.060;18.726;2022-08-05T08:28:36;100585.11;;;30.38;43.40
51147;BME280;37207;53.060;18.726;2022-08-05T08:31:07;100589.34;;;30.53;42.65
51147;BME280;37207;53.060;18.726;2022-08-05T08:33:34;100591.30;;;30.70;42.23
51147;BME280;37207;53.060;18.726;2022-08-05T08:36:03;100592.22;;;30.85;41.62
51147;BME280;37207;53.060;18.726;2022-08-05T08:38:37;100597.21;;;30.95;41.47
51147;BME280;37207;53.060;18.726;2022-08-05T08:41:09;100594.66;;;31.06;40.10
51147;BME280;37207;53.060;18.726;2022-08-05T08:43:39;100597.06;;;31.13;40.13
51147;BME280;37207;53.060;18.726;2022-08-05T08:46:07;100600.59;;;31.18;40.13
51147;BME280;37207;53.060;18.726;2022-08-05T08:48:35;100600.48;;;31.29;39.87
51147;BME280;37207;53.060;18.726;2022-08-05T08:51:03;100603.87;;;31.39;40.09
51147;BME280;37207;53.060;18.726;2022-08-05T08:53:36;100601.73;;;31.47;40.01
51147;BME280;37207;53.060;18.726;2022-08-05T08:56:04;100592.45;;;31.53;39.51
51147;BME280;37207;53.060;18.726;2022-08-05T08:58:32;100587.24;;;31.63;39.70
51147;BME280;37207;53.060;18.726;2022-08-05T09:00:59;100585.59;;;31.80;39.59
51147;BME280;37207;53.060;18.726;2022-08-05T09:03:27;100581.29;;;31.86;38.69
51147;BME280;37207;53.060;18.726;2022-08-05T09:05:55;100580.90;;;31.90;38.65
51147;BME280;37207;53.060;18.726;2022-08-05T09:08:22;100580.27;;;32.00;37.97
51147;BME280;37207;53.060;18.726;2022-08-05T09:10:50;100575.20;;;32.01;38.07
51147;BME280;37207;53.060;18.726;2022-08-05T09:13:17;100573.25;;;32.08;37.71
51147;BME280;37207;53.060;18.726;2022-08-05T09:15:45;100567.11;;;32.23;37.79
51147;BME280;37207;53.060;18.726;2022-08-05T09:18:13;100575.91;;;32.45;37.50
51147;BME280;37207;53.060;18.726;2022-08-05T09:20:41;100563.16;;;32.87;37.28
51147;BME280;37207;53.060;18.726;2022-08-05T09:23:17;100559.26;;;33.71;35.91
51147;BME280;37207;53.060;18.726;2022-08-05T09:25:50;100565.41;;;34.82;34.63
51147;BME280;37207;53.060;18.726;2022-08-05T09:28:20;100569.65;;;35.92;32.90
51147;BME280;37207;53.060;18.726;2022-08-05T09:30:57;100569.55;;;36.24;32.43
51147;BME280;37207;53.060;18.726;2022-08-05T09:33:27;100558.98;;;35.91;32.69
51147;BME280;37207;53.060;18.726;2022-08-05T09:35:59;100558.63;;;35.76;32.49
51147;BME280;37207;53.060;18.726;2022-08-05T09:38:28;100552.23;;;35.57;32.81
51147;BME280;37207;53.060;18.726;2022-08-05T09:41:06;100548.68;;;35.46;32.96
51147;BME280;37207;53.060;18.726;2022-08-05T09:43:37;100544.54;;;35.42;32.95
51147;BME280;37207;53.060;18.726;2022-08-05T09:46:06;100541.58;;;35.44;33.01
51147;BME280;37207;53.060;18.726;2022-08-05T09:48:37;100543.76;;;35.48;32.92
51147;BME280;37207;53.060;18.726;2022-08-05T09:51:07;100545.59;;;35.44;32.14
51147;BME280;37207;53.060;18.726;2022-08-05T09:53:50;100539.45;;;35.28;32.15
51147;BME280;37207;53.060;18.726;2022-08-05T09:56:28;100541.79;;;35.10;31.95
51147;BME280;37207;53.060;18.726;2022-08-05T10:01:28;100533.27;;;34.93;32.33
51147;BME280;37207;53.060;18.726;2022-08-05T10:03:59;100532.78;;;34.87;32.08
51147;BME280;37207;53.060;18.726;2022-08-05T10:06:31;100528.41;;;34.93;32.48
51147;BME280;37207;53.060;18.726;2022-08-05T10:09:18;100525.61;;;35.07;32.46
51147;BME280;37207;53.060;18.726;2022-08-05T10:11:48;100534.02;;;35.09;32.12
51147;BME280;37207;53.060;18.726;2022-08-05T10:16:52;100529.16;;;35.14;32.06
51147;BME280;37207;53.060;18.726;2022-08-05T10:19:23;100529.20;;;35.23;31.84
51147;BME280;37207;53.060;18.726;2022-08-05T10:21:51;100533.86;;;35.29;31.10
51147;BME280;37207;53.060;18.726;2022-08-05T10:24:19;100529.80;;;35.24;30.70
51147;BME280;37207;53.060;18.726;2022-08-05T10:26:48;100534.16;;;35.25;30.88
51147;BME280;37207;53.060;18.726;2022-08-05T10:29:19;100527.64;;;35.39;30.82
51147;BME280;37207;53.060;18.726;2022-08-05T10:31:48;100522.14;;;35.55;30.58
51147;BME280;37207;53.060;18.726;2022-08-05T10:34:16;100519.30;;;35.77;30.56
51147;BME280;37207;53.060;18.726;2022-08-05T10:36:44;100514.27;;;35.99;30.60
51147;BME280;37207;53.060;18.726;2022-08-05T10:39:17;100506.46;;;36.35;30.88
51147;BME280;37207;53.060;18.726;2022-08-05T10:41:52;100506.54;;;36.90;29.85
51147;BME280;37207;53.060;18.726;2022-08-05T10:44:22;100505.89;;;37.41;29.11
51147;BME280;37207;53.060;18.726;2022-08-05T10:46:53;100499.94;;;37.67;28.65
51147;BME280;37207;53.060;18.726;2022-08-05T10:49:22;100494.31;;;37.91;28.45
51147;BME280;37207;53.060;18.726;2022-08-05T10:51:54;100496.70;;;38.01;27.88
51147;BME280;37207;53.060;18.726;2022-08-05T10:54:45;100492.77;;;38.44;26.88
51147;BME280;37207;53.060;18.726;2022-08-05T10:57:24;100503.20;;;39.40;26.38
51147;BME280;37207;53.060;18.726;2022-08-05T11:00:08;100496.96;;;40.20;25.95
51147;BME280;37207;53.060;18.726;2022-08-05T11:02:36;100491.80;;;40.56;24.67
51147;BME280;37207;53.060;18.726;2022-08-05T11:05:08;100494.67;;;40.77;23.83
51147;BME280;37207;53.060;18.726;2022-08-05T11:07:55;100491.61;;;41.43;23.61
51147;BME280;37207;53.060;18.726;2022-08-05T11:10:24;100489.64;;;42.08;23.24
51147;BME280;37207;53.060;18.726;2022-08-05T11:12:52;100485.03;;;42.75;22.98
51147;BME280;37207;53.060;18.726;2022-08-05T11:15:25;100482.98;;;43.23;22.07
51147;BME280;37207;53.060;18.726;2022-08-05T11:20:49;100467.58;;;43.30;22.25
51147;BME280;37207;53.060;18.726;2022-08-05T11:23:30;100476.54;;;43.06;21.54
51147;BME280;37207;53.060;18.726;2022-08-05T11:35:59;100449.33;;;41.29;22.74
51147;BME280;37207;53.060;18.726;2022-08-05T11:41:25;100456.31;;;40.77;23.41
51147;BME280;37207;53.060;18.726;2022-08-05T11:44:00;100466.77;;;40.32;23.27
51147;BME280;37207;53.060;18.726;2022-08-05T11:46:31;100459.85;;;39.85;23.87
51147;BME280;37207;53.060;18.726;2022-08-05T11:49:00;100459.48;;;39.52;24.44
51147;BME280;37207;53.060;18.726;2022-08-05T11:51:30;100458.98;;;39.32;24.63
51147;BME280;37207;53.060;18.726;2022-08-05T11:53:58;100463.34;;;39.08;24.05
51147;BME280;37207;53.060;18.726;2022-08-05T11:56:48;100462.95;;;38.80;24.22
51147;BME280;37207;53.060;18.726;2022-08-05T11:59:19;100460.14;;;38.56;25.19
51147;BME280;37207;53.060;18.726;2022-08-05T12:01:54;100458.42;;;38.36;24.35
51147;BME280;37207;53.060;18.726;2022-08-05T12:04:22;100462.08;;;38.18;24.89
51147;BME280;37207;53.060;18.726;2022-08-05T12:06:50;100455.63;;;38.14;25.13
51147;BME280;37207;53.060;18.726;2022-08-05T12:09:22;100455.17;;;38.13;25.67
51147;BME280;37207;53.060;18.726;2022-08-05T12:11:52;100453.27;;;38.11;25.45
51147;BME280;37207;53.060;18.726;2022-08-05T12:14:22;100451.70;;;38.00;25.52
51147;BME280;37207;53.060;18.726;2022-08-05T12:16:51;100445.44;;;38.04;25.87
51147;BME280;37207;53.060;18.726;2022-08-05T12:19:18;100439.02;;;38.00;25.88
51147;BME280;37207;53.060;18.726;2022-08-05T12:21:49;100433.10;;;38.06;26.04
51147;BME280;37207;53.060;18.726;2022-08-05T12:24:19;100436.67;;;38.17;25.61
51147;BME280;37207;53.060;18.726;2022-08-05T12:26:49;100432.57;;;38.20;25.86
51147;BME280;37207;53.060;18.726;2022-08-05T12:29:20;100426.75;;;38.25;25.86
51147;BME280;37207;53.060;18.726;2022-08-05T12:31:52;100423.15;;;38.40;25.95
51147;BME280;37207;53.060;18.726;2022-08-05T12:34:32;100426.23;;;38.55;25.73
51147;BME280;37207;53.060;18.726;2022-08-05T12:37:04;100423.88;;;38.59;25.89
51147;BME280;37207;53.060;18.726;2022-08-05T12:39:39;100422.30;;;38.69;25.58
51147;BME280;37207;53.060;18.726;2022-08-05T12:42:11;100426.13;;;38.72;25.09
51147;BME280;37207;53.060;18.726;2022-08-05T12:44:39;100420.30;;;38.55;25.10
51147;BME280;37207;53.060;18.726;2022-08-05T12:47:06;100420.89;;;38.21;25.89
51147;BME280;37207;53.060;18.726;2022-08-05T12:49:47;100421.28;;;37.87;26.21
51147;BME280;37207;53.060;18.726;2022-08-05T12:52:18;100419.59;;;37.58;26.16
51147;BME280;37207;53.060;18.726;2022-08-05T12:54:47;100415.92;;;37.20;26.10
51147;BME280;37207;53.060;18.726;2022-08-05T12:57:18;100416.18;;;37.03;26.25
51147;BME280;37207;53.060;18.726;2022-08-05T13:02:21;100413.32;;;37.04;26.62
51147;BME280;37207;53.060;18.726;2022-08-05T13:04:51;100417.65;;;37.15;26.77
51147;BME280;37207;53.060;18.726;2022-08-05T13:07:24;100409.54;;;37.18;26.02
51147;BME280;37207;53.060;18.726;2022-08-05T13:09:56;100409.73;;;37.19;26.20
51147;BME280;37207;53.060;18.726;2022-08-05T13:12:26;100406.08;;;37.08;26.21
51147;BME280;37207;53.060;18.726;2022-08-05T13:14:59;100412.47;;;36.93;26.56
51147;BME280;37207;53.060;18.726;2022-08-05T13:17:30;100398.92;;;36.81;26.96
51147;BME280;37207;53.060;18.726;2022-08-05T13:20:02;100395.38;;;36.68;27.56
51147;BME280;37207;53.060;18.726;2022-08-05T13:22:35;100392.81;;;36.43;27.54